sensor_id;sensor_type;location;lat;lon;timestamp;P1;durP1;ratioP1;P2;durP2;ratioP2
46216;SDS011;47258;59.424;13.482;2023-01-10T00:00:20;0.77;;;0.70;;
46216;SDS011;47258;59.424;13.482;2023-01-10T00:02:49;2.67;;;0.80;;
46216;SDS011;47258;59.424;13.482;2023-01-10T00:05:16;2.47;;;1.35;;
46216;SDS011;47258;59.424;13.482;2023-01-10T00:07:44;1.23;;;1.13;;
46216;SDS011;47258;59.424;13.482;2023-01-10T00:10:13;1.85;;;1.00;;
46216;SDS011;47258;59.424;13.482;2023-01-10T00:12:40;1.43;;;1.30;;
46216;SDS011;47258;59.424;13.482;2023-01-10T00:15:24;0.90;;;0.90;;
46216;SDS011;47258;59.424;13.482;2023-01-10T00:17:51;0.98;;;0.98;;
46216;SDS011;47258;59.424;13.482;2023-01-10T00:20:18;2.40;;;1.33;;
46216;SDS011;47258;59.424;13.482;2023-01-10T00:22:46;4.35;;;1.08;;
46216;SDS011;47258;59.424;13.482;2023-01-10T00:25:16;1.38;;;1.27;;
46216;SDS011;47258;59.424;13.482;2023-01-10T00:27:45;0.93;;;0.88;;
46216;SDS011;47258;59.424;13.482;2023-01-10T00:30:18;2.47;;;0.80;;
46216;SDS011;47258;59.424;13.482;2023-01-10T00:32:45;1.05;;;0.95;;
46216;SDS011;47258;59.424;13.482;2023-01-10T00:35:12;1.25;;;1.17;;
46216;SDS011;47258;59.424;13.482;2023-01-10T00:37:39;0.68;;;0.68;;
46216;SDS011;47258;59.424;13.482;2023-01-10T00:40:07;1.08;;;0.75;;
46216;SDS011;47258;59.424;13.482;2023-01-10T00:42:37;0.90;;;0.90;;
46216;SDS011;47258;59.424;13.482;2023-01-10T00:45:21;1.05;;;0.75;;
46216;SDS011;47258;59.424;13.482;2023-01-10T00:47:50;0.98;;;0.77;;
46216;SDS011;47258;59.424;13.482;2023-01-10T00:50:17;0.77;;;0.77;;
46216;SDS011;47258;59.424;13.482;2023-01-10T00:52:45;1.65;;;0.80;;
46216;SDS011;47258;59.424;13.482;2023-01-10T00:55:12;1.10;;;0.80;;
46216;SDS011;47258;59.424;13.482;2023-01-10T00:57:40;0.82;;;0.75;;
46216;SDS011;47258;59.424;13.482;2023-01-10T01:00:08;1.05;;;0.90;;
46216;SDS011;47258;59.424;13.482;2023-01-10T01:02:36;1.90;;;0.93;;
46216;SDS011;47258;59.424;13.482;2023-01-10T01:05:03;0.95;;;0.80;;
46216;SDS011;47258;59.424;13.482;2023-01-10T01:07:31;1.15;;;1.02;;
46216;SDS011;47258;59.424;13.482;2023-01-10T01:09:58;2.00;;;0.95;;
46216;SDS011;47258;59.424;13.482;2023-01-10T01:12:44;0.85;;;0.80;;
46216;SDS011;47258;59.424;13.482;2023-01-10T01:15:11;0.70;;;0.70;;
46216;SDS011;47258;59.424;13.482;2023-01-10T01:17:38;0.57;;;0.57;;
46216;SDS011;47258;59.424;13.482;2023-01-10T01:20:06;1.35;;;0.73;;
46216;SDS011;47258;59.424;13.482;2023-01-10T01:22:34;0.77;;;0.68;;
46216;SDS011;47258;59.424;13.482;2023-01-10T01:25:01;2.28;;;1.08;;
46216;SDS011;47258;59.424;13.482;2023-01-10T01:27:29;3.42;;;0.98;;
46216;SDS011;47258;59.424;13.482;2023-01-10T01:29:58;77.97;;;4.53;;
46216;SDS011;47258;59.424;13.482;2023-01-10T01:32:25;35.17;;;2.40;;
46216;SDS011;47258;59.424;13.482;2023-01-10T01:34:52;11.05;;;1.50;;
46216;SDS011;47258;59.424;13.482;2023-01-10T01:37:19;87.90;;;4.45;;
46216;SDS011;47258;59.424;13.482;2023-01-10T01:39:46;1.20;;;0.95;;
46216;SDS011;47258;59.424;13.482;2023-01-10T01:42:19;155.88;;;6.88;;
46216;SDS011;47258;59.424;13.482;2023-01-10T01:47:46;1.27;;;0.90;;
46216;SDS011;47258;59.424;13.482;2023-01-10T01:50:18;1.17;;;0.60;;
46216;SDS011;47258;59.424;13.482;2023-01-10T01:52:48;0.98;;;0.82;;
46216;SDS011;47258;59.424;13.482;2023-01-10T01:55:17;2.05;;;1.00;;
46216;SDS011;47258;59.424;13.482;2023-01-10T01:57:44;1.00;;;0.60;;
46216;SDS011;47258;59.424;13.482;2023-01-10T02:00:13;0.70;;;0.70;;
46216;SDS011;47258;59.424;13.482;2023-01-10T02:02:41;0.85;;;0.70;;
46216;SDS011;47258;59.424;13.482;2023-01-10T02:05:13;1.33;;;1.13;;
46216;SDS011;47258;59.424;13.482;2023-01-10T02:07:44;1.02;;;0.88;;
46216;SDS011;47258;59.424;13.482;2023-01-10T02:10:14;1.00;;;0.87;;
46216;SDS011;47258;59.424;13.482;2023-01-10T02:12:45;1.00;;;0.90;;
46216;SDS011;47258;59.424;13.482;2023-01-10T02:15:15;4.18;;;1.30;;
46216;SDS011;47258;59.424;13.482;2023-01-10T02:17:44;20.55;;;1.98;;
46216;SDS011;47258;59.424;13.482;2023-01-10T02:20:15;13.50;;;1.42;;
46216;SDS011;47258;59.424;13.482;2023-01-10T02:26:10;2.08;;;0.80;;
46216;SDS011;47258;59.424;13.482;2023-01-10T02:29:21;1.08;;;0.95;;
46216;SDS011;47258;59.424;13.482;2023-01-10T02:32:17;1.15;;;1.10;;
46216;SDS011;47258;59.424;13.482;2023-01-10T02:34:59;1.20;;;1.00;;
46216;SDS011;47258;59.424;13.482;2023-01-10T02:37:36;1.17;;;1.08;;
46216;SDS011;47258;59.424;13.482;2023-01-10T02:40:13;0.80;;;0.80;;
46216;SDS011;47258;59.424;13.482;2023-01-10T02:42:48;1.20;;;0.80;;
46216;SDS011;47258;59.424;13.482;2023-01-10T02:45:21;5.65;;;1.10;;
46216;SDS011;47258;59.424;13.482;2023-01-10T02:47:55;3.92;;;1.08;;
46216;SDS011;47258;59.424;13.482;2023-01-10T02:53:02;102.65;;;5.28;;
46216;SDS011;47258;59.424;13.482;2023-01-10T02:55:33;232.38;;;11.13;;
46216;SDS011;47258;59.424;13.482;2023-01-10T02:58:12;220.73;;;9.57;;
46216;SDS011;47258;59.424;13.482;2023-01-10T03:00:50;64.38;;;3.58;;
46216;SDS011;47258;59.424;13.482;2023-01-10T03:03:26;3.00;;;0.77;;
46216;SDS011;47258;59.424;13.482;2023-01-10T03:08:50;2.30;;;1.02;;
46216;SDS011;47258;59.424;13.482;2023-01-10T03:11:22;2.03;;;1.00;;
46216;SDS011;47258;59.424;13.482;2023-01-10T03:14:05;1.38;;;1.00;;
46216;SDS011;47258;59.424;13.482;2023-01-10T03:16:37;1.52;;;1.02;;
46216;SDS011;47258;59.424;13.482;2023-01-10T03:24:05;38.25;;;2.42;;
46216;SDS011;47258;59.424;13.482;2023-01-10T03:26:39;2.20;;;1.45;;
46216;SDS011;47258;59.424;13.482;2023-01-10T03:29:14;1.63;;;1.25;;
46216;SDS011;47258;59.424;13.482;2023-01-10T03:31:47;22.85;;;1.63;;
46216;SDS011;47258;59.424;13.482;2023-01-10T03:34:21;11.93;;;1.75;;
46216;SDS011;47258;59.424;13.482;2023-01-10T03:39:22;0.85;;;0.85;;
46216;SDS011;47258;59.424;13.482;2023-01-10T03:41:57;2.08;;;1.13;;
46216;SDS011;47258;59.424;13.482;2023-01-10T03:44:36;1.98;;;1.20;;
46216;SDS011;47258;59.424;13.482;2023-01-10T03:47:10;1.20;;;1.10;;
46216;SDS011;47258;59.424;13.482;2023-01-10T03:49:46;13.48;;;1.40;;
46216;SDS011;47258;59.424;13.482;2023-01-10T03:52:15;1.50;;;1.27;;
46216;SDS011;47258;59.424;13.482;2023-01-10T03:54:44;5.97;;;1.20;;
46216;SDS011;47258;59.424;13.482;2023-01-10T03:57:17;4.90;;;1.00;;
46216;SDS011;47258;59.424;13.482;2023-01-10T03:59:45;4.28;;;1.02;;
46216;SDS011;47258;59.424;13.482;2023-01-10T04:02:14;1.35;;;1.10;;
46216;SDS011;47258;59.424;13.482;2023-01-10T04:04:42;22.45;;;1.63;;
46216;SDS011;47258;59.424;13.482;2023-01-10T04:07:10;28.35;;;2.50;;
46216;SDS011;47258;59.424;13.482;2023-01-10T04:09:37;19.58;;;2.10;;
46216;SDS011;47258;59.424;13.482;2023-01-10T04:12:04;65.57;;;4.35;;
46216;SDS011;47258;59.424;13.482;2023-01-10T04:14:31;39.92;;;2.50;;
46216;SDS011;47258;59.424;13.482;2023-01-10T04:16:58;10.32;;;1.60;;
46216;SDS011;47258;59.424;13.482;2023-01-10T04:19:25;70.85;;;3.90;;
46216;SDS011;47258;59.424;13.482;2023-01-10T04:21:53;72.28;;;4.45;;
46216;SDS011;47258;59.424;13.482;2023-01-10T04:24:21;23.42;;;1.80;;
46216;SDS011;47258;59.424;13.482;2023-01-10T04:26:48;12.35;;;1.50;;
46216;SDS011;47258;59.424;13.482;2023-01-10T04:29:15;9.32;;;1.67;;
46216;SDS011;47258;59.424;13.482;2023-01-10T04:31:42;7.88;;;1.80;;
46216;SDS011;47258;59.424;13.482;2023-01-10T04:34:10;11.13;;;1.75;;
46216;SDS011;47258;59.424;13.482;2023-01-10T04:36:37;138.43;;;6.97;;
46216;SDS011;47258;59.424;13.482;2023-01-10T04:39:04;23.77;;;1.95;;
46216;SDS011;47258;59.424;13.482;2023-01-10T04:41:33;89.15;;;4.13;;
46216;SDS011;47258;59.424;13.482;2023-01-10T04:44:00;39.63;;;2.90;;
46216;SDS011;47258;59.424;13.482;2023-01-10T04:46:27;31.30;;;2.53;;
46216;SDS011;47258;59.424;13.482;2023-01-10T04:48:54;53.00;;;3.83;;
46216;SDS011;47258;59.424;13.482;2023-01-10T04:51:22;8.43;;;1.50;;
46216;SDS011;47258;59.424;13.482;2023-01-10T04:53:50;13.95;;;1.55;;
46216;SDS011;47258;59.424;13.482;2023-01-10T04:56:18;7.20;;;1.20;;
46216;SDS011;47258;59.424;13.482;2023-01-10T04:58:48;3.03;;;1.23;;
46216;SDS011;47258;59.424;13.482;2023-01-10T05:01:16;16.42;;;1.77;;
46216;SDS011;47258;59.424;13.482;2023-01-10T05:06:12;59.10;;;3.72;;
46216;SDS011;47258;59.424;13.482;2023-01-10T05:08:39;142.43;;;7.60;;
46216;SDS011;47258;59.424;13.482;2023-01-10T05:11:06;12.90;;;1.80;;
46216;SDS011;47258;59.424;13.482;2023-01-10T05:13:33;59.17;;;4.43;;
46216;SDS011;47258;59.424;13.482;2023-01-10T05:16:02;71.72;;;3.38;;
46216;SDS011;47258;59.424;13.482;2023-01-10T05:18:29;34.87;;;2.33;;
46216;SDS011;47258;59.424;13.482;2023-01-10T05:20:58;41.38;;;2.90;;
46216;SDS011;47258;59.424;13.482;2023-01-10T05:23:26;5.95;;;1.40;;
46216;SDS011;47258;59.424;13.482;2023-01-10T05:25:53;13.05;;;1.63;;
46216;SDS011;47258;59.424;13.482;2023-01-10T05:28:21;16.75;;;2.60;;
46216;SDS011;47258;59.424;13.482;2023-01-10T05:30:48;12.90;;;2.50;;
46216;SDS011;47258;59.424;13.482;2023-01-10T05:33:16;22.67;;;3.50;;
46216;SDS011;47258;59.424;13.482;2023-01-10T05:35:43;39.70;;;3.22;;
46216;SDS011;47258;59.424;13.482;2023-01-10T05:38:11;25.70;;;3.33;;
46216;SDS011;47258;59.424;13.482;2023-01-10T05:40:38;44.00;;;4.85;;
46216;SDS011;47258;59.424;13.482;2023-01-10T05:43:05;57.30;;;5.05;;
46216;SDS011;47258;59.424;13.482;2023-01-10T05:45:32;57.97;;;4.28;;
46216;SDS011;47258;59.424;13.482;2023-01-10T05:47:59;59.22;;;4.70;;
46216;SDS011;47258;59.424;13.482;2023-01-10T05:50:27;61.00;;;4.75;;
46216;SDS011;47258;59.424;13.482;2023-01-10T05:52:54;92.22;;;5.00;;
46216;SDS011;47258;59.424;13.482;2023-01-10T05:55:27;85.70;;;5.18;;
46216;SDS011;47258;59.424;13.482;2023-01-10T05:57:54;87.40;;;5.60;;
46216;SDS011;47258;59.424;13.482;2023-01-10T06:00:22;90.47;;;5.90;;
46216;SDS011;47258;59.424;13.482;2023-01-10T06:02:49;71.10;;;6.13;;
46216;SDS011;47258;59.424;13.482;2023-01-10T06:05:17;113.07;;;7.93;;
46216;SDS011;47258;59.424;13.482;2023-01-10T06:07:45;94.18;;;7.53;;
46216;SDS011;47258;59.424;13.482;2023-01-10T06:10:12;102.43;;;8.05;;
46216;SDS011;47258;59.424;13.482;2023-01-10T06:12:39;56.67;;;5.50;;
46216;SDS011;47258;59.424;13.482;2023-01-10T06:15:07;41.03;;;6.60;;
46216;SDS011;47258;59.424;13.482;2023-01-10T06:17:35;136.65;;;10.93;;
46216;SDS011;47258;59.424;13.482;2023-01-10T06:20:02;170.18;;;11.07;;
46216;SDS011;47258;59.424;13.482;2023-01-10T06:22:30;54.13;;;6.03;;
46216;SDS011;47258;59.424;13.482;2023-01-10T06:24:58;33.25;;;5.72;;
46216;SDS011;47258;59.424;13.482;2023-01-10T06:27:25;48.78;;;7.28;;
46216;SDS011;47258;59.424;13.482;2023-01-10T06:29:52;48.58;;;7.15;;
46216;SDS011;47258;59.424;13.482;2023-01-10T06:32:19;25.92;;;6.18;;
46216;SDS011;47258;59.424;13.482;2023-01-10T06:34:46;59.67;;;8.02;;
46216;SDS011;47258;59.424;13.482;2023-01-10T06:37:13;54.85;;;6.78;;
46216;SDS011;47258;59.424;13.482;2023-01-10T06:39:40;24.80;;;7.38;;
46216;SDS011;47258;59.424;13.482;2023-01-10T06:42:09;156.93;;;8.82;;
46216;SDS011;47258;59.424;13.482;2023-01-10T06:44:36;77.30;;;6.85;;
46216;SDS011;47258;59.424;13.482;2023-01-10T06:47:03;63.70;;;6.63;;
46216;SDS011;47258;59.424;13.482;2023-01-10T06:49:30;53.08;;;6.55;;
46216;SDS011;47258;59.424;13.482;2023-01-10T06:51:57;108.53;;;9.90;;
46216;SDS011;47258;59.424;13.482;2023-01-10T06:54:24;134.15;;;11.60;;
46216;SDS011;47258;59.424;13.482;2023-01-10T06:56:52;193.00;;;13.13;;
46216;SDS011;47258;59.424;13.482;2023-01-10T06:59:20;51.15;;;8.52;;
46216;SDS011;47258;59.424;13.482;2023-01-10T07:01:47;79.82;;;7.43;;
46216;SDS011;47258;59.424;13.482;2023-01-10T07:04:15;90.72;;;7.35;;
46216;SDS011;47258;59.424;13.482;2023-01-10T07:06:42;62.78;;;6.65;;
46216;SDS011;47258;59.424;13.482;2023-01-10T07:09:09;115.40;;;9.32;;
46216;SDS011;47258;59.424;13.482;2023-01-10T07:11:36;243.35;;;13.00;;
46216;SDS011;47258;59.424;13.482;2023-01-10T07:14:03;91.97;;;7.70;;
46216;SDS011;47258;59.424;13.482;2023-01-10T07:16:31;211.25;;;12.95;;
46216;SDS011;47258;59.424;13.482;2023-01-10T07:18:58;199.30;;;12.27;;
46216;SDS011;47258;59.424;13.482;2023-01-10T07:21:26;123.47;;;9.57;;
46216;SDS011;47258;59.424;13.482;2023-01-10T07:23:53;254.40;;;15.23;;
46216;SDS011;47258;59.424;13.482;2023-01-10T07:26:20;220.15;;;13.35;;
46216;SDS011;47258;59.424;13.482;2023-01-10T07:28:48;70.18;;;7.88;;
46216;SDS011;47258;59.424;13.482;2023-01-10T07:31:16;73.75;;;8.88;;
46216;SDS011;47258;59.424;13.482;2023-01-10T07:33:46;38.03;;;9.57;;
46216;SDS011;47258;59.424;13.482;2023-01-10T07:36:13;74.68;;;10.55;;
46216;SDS011;47258;59.424;13.482;2023-01-10T07:38:40;47.65;;;9.65;;
46216;SDS011;47258;59.424;13.482;2023-01-10T07:41:07;34.45;;;9.55;;
46216;SDS011;47258;59.424;13.482;2023-01-10T07:43:34;36.53;;;8.82;;
46216;SDS011;47258;59.424;13.482;2023-01-10T07:46:02;40.35;;;10.05;;
46216;SDS011;47258;59.424;13.482;2023-01-10T07:48:33;43.88;;;9.18;;
46216;SDS011;47258;59.424;13.482;2023-01-10T07:51:02;51.67;;;10.73;;
46216;SDS011;47258;59.424;13.482;2023-01-10T07:53:31;49.22;;;11.15;;
46216;SDS011;47258;59.424;13.482;2023-01-10T07:55:58;33.55;;;10.43;;
46216;SDS011;47258;59.424;13.482;2023-01-10T07:58:26;57.20;;;11.23;;
46216;SDS011;47258;59.424;13.482;2023-01-10T08:00:55;45.35;;;9.57;;
46216;SDS011;47258;59.424;13.482;2023-01-10T08:03:23;54.67;;;10.77;;
46216;SDS011;47258;59.424;13.482;2023-01-10T08:05:56;60.38;;;10.60;;
46216;SDS011;47258;59.424;13.482;2023-01-10T08:08:25;43.75;;;9.20;;
46216;SDS011;47258;59.424;13.482;2023-01-10T08:10:52;113.05;;;13.40;;
46216;SDS011;47258;59.424;13.482;2023-01-10T08:13:20;114.68;;;13.48;;
46216;SDS011;47258;59.424;13.482;2023-01-10T08:15:47;50.20;;;10.07;;
46216;SDS011;47258;59.424;13.482;2023-01-10T08:18:16;57.97;;;10.75;;
46216;SDS011;47258;59.424;13.482;2023-01-10T08:20:44;33.83;;;8.82;;
46216;SDS011;47258;59.424;13.482;2023-01-10T08:23:12;38.78;;;8.52;;
46216;SDS011;47258;59.424;13.482;2023-01-10T08:25:41;92.60;;;11.77;;
46216;SDS011;47258;59.424;13.482;2023-01-10T08:28:08;145.20;;;15.67;;
46216;SDS011;47258;59.424;13.482;2023-01-10T08:30:36;204.25;;;16.27;;
46216;SDS011;47258;59.424;13.482;2023-01-10T08:33:04;208.38;;;18.83;;
46216;SDS011;47258;59.424;13.482;2023-01-10T08:35:35;169.40;;;21.00;;
46216;SDS011;47258;59.424;13.482;2023-01-10T08:38:02;84.63;;;21.42;;
46216;SDS011;47258;59.424;13.482;2023-01-10T08:40:30;133.98;;;15.13;;
46216;SDS011;47258;59.424;13.482;2023-01-10T08:42:58;201.15;;;17.60;;
46216;SDS011;47258;59.424;13.482;2023-01-10T08:45:26;63.10;;;9.05;;
46216;SDS011;47258;59.424;13.482;2023-01-10T08:47:54;115.50;;;11.80;;
46216;SDS011;47258;59.424;13.482;2023-01-10T08:50:21;80.97;;;9.43;;
46216;SDS011;47258;59.424;13.482;2023-01-10T08:52:49;32.95;;;7.07;;
46216;SDS011;47258;59.424;13.482;2023-01-10T08:55:16;88.55;;;9.10;;
46216;SDS011;47258;59.424;13.482;2023-01-10T08:57:44;96.78;;;10.52;;
46216;SDS011;47258;59.424;13.482;2023-01-10T09:00:13;150.85;;;11.07;;
46216;SDS011;47258;59.424;13.482;2023-01-10T09:02:40;60.05;;;6.47;;
46216;SDS011;47258;59.424;13.482;2023-01-10T09:05:08;63.67;;;7.07;;
46216;SDS011;47258;59.424;13.482;2023-01-10T09:07:35;127.30;;;9.45;;
46216;SDS011;47258;59.424;13.482;2023-01-10T09:10:05;112.70;;;9.18;;
46216;SDS011;47258;59.424;13.482;2023-01-10T09:12:33;83.03;;;9.15;;
46216;SDS011;47258;59.424;13.482;2023-01-10T09:15:19;62.03;;;6.20;;
46216;SDS011;47258;59.424;13.482;2023-01-10T09:17:46;45.00;;;5.60;;
46216;SDS011;47258;59.424;13.482;2023-01-10T09:20:15;62.60;;;7.85;;
46216;SDS011;47258;59.424;13.482;2023-01-10T09:22:42;23.00;;;4.82;;
46216;SDS011;47258;59.424;13.482;2023-01-10T09:25:09;34.63;;;6.68;;
46216;SDS011;47258;59.424;13.482;2023-01-10T09:27:36;14.70;;;4.35;;
46216;SDS011;47258;59.424;13.482;2023-01-10T09:30:03;7.22;;;3.45;;
46216;SDS011;47258;59.424;13.482;2023-01-10T09:32:32;12.90;;;4.88;;
46216;SDS011;47258;59.424;13.482;2023-01-10T09:35:00;6.75;;;3.40;;
46216;SDS011;47258;59.424;13.482;2023-01-10T09:37:27;10.38;;;4.30;;
46216;SDS011;47258;59.424;13.482;2023-01-10T09:39:57;12.85;;;4.45;;
46216;SDS011;47258;59.424;13.482;2023-01-10T09:42:27;11.63;;;4.65;;
46216;SDS011;47258;59.424;13.482;2023-01-10T09:45:08;10.25;;;4.28;;
46216;SDS011;47258;59.424;13.482;2023-01-10T09:47:44;10.60;;;4.05;;
46216;SDS011;47258;59.424;13.482;2023-01-10T09:50:19;10.65;;;4.15;;
46216;SDS011;47258;59.424;13.482;2023-01-10T09:52:54;18.52;;;5.38;;
46216;SDS011;47258;59.424;13.482;2023-01-10T09:55:24;13.98;;;5.95;;
46216;SDS011;47258;59.424;13.482;2023-01-10T09:57:54;12.10;;;6.15;;
46216;SDS011;47258;59.424;13.482;2023-01-10T10:00:28;17.75;;;5.90;;
46216;SDS011;47258;59.424;13.482;2023-01-10T10:03:02;18.10;;;8.27;;
46216;SDS011;47258;59.424;13.482;2023-01-10T10:05:38;16.73;;;7.32;;
46216;SDS011;47258;59.424;13.482;2023-01-10T10:08:07;18.83;;;6.25;;
46216;SDS011;47258;59.424;13.482;2023-01-10T10:10:42;18.75;;;6.75;;
46216;SDS011;47258;59.424;13.482;2023-01-10T10:13:20;13.50;;;6.25;;
46216;SDS011;47258;59.424;13.482;2023-01-10T10:15:59;16.58;;;6.07;;
46216;SDS011;47258;59.424;13.482;2023-01-10T10:18:37;13.60;;;5.03;;
46216;SDS011;47258;59.424;13.482;2023-01-10T10:21:12;14.27;;;5.20;;
46216;SDS011;47258;59.424;13.482;2023-01-10T10:23:58;18.85;;;6.18;;
46216;SDS011;47258;59.424;13.482;2023-01-10T10:26:32;21.65;;;6.57;;
46216;SDS011;47258;59.424;13.482;2023-01-10T10:32:05;27.30;;;7.38;;
46216;SDS011;47258;59.424;13.482;2023-01-10T10:34:44;14.68;;;6.28;;
46216;SDS011;47258;59.424;13.482;2023-01-10T10:37:16;17.15;;;5.85;;
46216;SDS011;47258;59.424;13.482;2023-01-10T10:39:49;11.45;;;4.93;;
46216;SDS011;47258;59.424;13.482;2023-01-10T10:42:19;15.05;;;4.97;;
46216;SDS011;47258;59.424;13.482;2023-01-10T10:44:46;15.88;;;5.30;;
46216;SDS011;47258;59.424;13.482;2023-01-10T10:47:18;14.65;;;5.05;;
46216;SDS011;47258;59.424;13.482;2023-01-10T10:49:50;10.73;;;4.43;;
46216;SDS011;47258;59.424;13.482;2023-01-10T10:52:24;15.65;;;5.15;;
46216;SDS011;47258;59.424;13.482;2023-01-10T10:54:52;14.05;;;5.47;;
46216;SDS011;47258;59.424;13.482;2023-01-10T10:57:20;15.15;;;5.30;;
46216;SDS011;47258;59.424;13.482;2023-01-10T10:59:51;18.95;;;5.70;;
46216;SDS011;47258;59.424;13.482;2023-01-10T11:02:20;13.13;;;5.50;;
46216;SDS011;47258;59.424;13.482;2023-01-10T11:04:52;12.63;;;4.97;;
46216;SDS011;47258;59.424;13.482;2023-01-10T11:07:22;14.82;;;4.68;;
46216;SDS011;47258;59.424;13.482;2023-01-10T11:09:51;12.65;;;5.18;;
46216;SDS011;47258;59.424;13.482;2023-01-10T11:12:26;16.48;;;5.07;;
46216;SDS011;47258;59.424;13.482;2023-01-10T11:14:58;10.50;;;5.13;;
46216;SDS011;47258;59.424;13.482;2023-01-10T11:17:26;15.68;;;4.90;;
46216;SDS011;47258;59.424;13.482;2023-01-10T11:20:00;12.70;;;4.95;;
46216;SDS011;47258;59.424;13.482;2023-01-10T11:22:30;18.52;;;4.35;;
46216;SDS011;47258;59.424;13.482;2023-01-10T11:25:03;14.55;;;4.80;;
46216;SDS011;47258;59.424;13.482;2023-01-10T11:27:42;12.93;;;4.15;;
46216;SDS011;47258;59.424;13.482;2023-01-10T11:30:16;10.52;;;4.07;;
46216;SDS011;47258;59.424;13.482;2023-01-10T11:32:50;12.00;;;4.70;;
46216;SDS011;47258;59.424;13.482;2023-01-10T11:35:22;8.80;;;3.53;;
46216;SDS011;47258;59.424;13.482;2023-01-10T11:37:58;15.48;;;4.60;;
46216;SDS011;47258;59.424;13.482;2023-01-10T11:40:30;9.25;;;3.97;;
46216;SDS011;47258;59.424;13.482;2023-01-10T11:42:58;10.60;;;4.53;;
46216;SDS011;47258;59.424;13.482;2023-01-10T11:45:26;12.32;;;3.33;;
46216;SDS011;47258;59.424;13.482;2023-01-10T11:47:58;10.43;;;3.40;;
46216;SDS011;47258;59.424;13.482;2023-01-10T11:50:33;13.57;;;3.95;;
46216;SDS011;47258;59.424;13.482;2023-01-10T11:53:02;4.72;;;3.25;;
46216;SDS011;47258;59.424;13.482;2023-01-10T11:55:32;13.25;;;3.75;;
46216;SDS011;47258;59.424;13.482;2023-01-10T11:58:04;6.40;;;2.88;;
46216;SDS011;47258;59.424;13.482;2023-01-10T12:00:34;8.20;;;3.80;;
46216;SDS011;47258;59.424;13.482;2023-01-10T12:03:13;7.32;;;3.58;;
46216;SDS011;47258;59.424;13.482;2023-01-10T12:05:49;7.10;;;4.60;;
46216;SDS011;47258;59.424;13.482;2023-01-10T12:08:25;14.93;;;4.95;;
46216;SDS011;47258;59.424;13.482;2023-01-10T12:11:01;14.18;;;6.05;;
46216;SDS011;47258;59.424;13.482;2023-01-10T12:13:41;12.27;;;5.95;;
46216;SDS011;47258;59.424;13.482;2023-01-10T12:16:17;9.50;;;4.40;;
46216;SDS011;47258;59.424;13.482;2023-01-10T12:18:46;8.30;;;4.70;;
46216;SDS011;47258;59.424;13.482;2023-01-10T12:21:17;7.25;;;3.17;;
46216;SDS011;47258;59.424;13.482;2023-01-10T12:23:51;9.25;;;2.72;;
46216;SDS011;47258;59.424;13.482;2023-01-10T12:26:22;5.65;;;1.98;;
46216;SDS011;47258;59.424;13.482;2023-01-10T12:31:21;1.75;;;1.63;;
46216;SDS011;47258;59.424;13.482;2023-01-10T12:33:50;3.58;;;1.45;;
46216;SDS011;47258;59.424;13.482;2023-01-10T12:36:27;5.18;;;1.50;;
46216;SDS011;47258;59.424;13.482;2023-01-10T12:39:02;9.70;;;1.30;;
46216;SDS011;47258;59.424;13.482;2023-01-10T12:41:42;2.00;;;1.07;;
46216;SDS011;47258;59.424;13.482;2023-01-10T12:44:35;2.65;;;0.93;;
46216;SDS011;47258;59.424;13.482;2023-01-10T12:47:08;1.80;;;1.02;;
46216;SDS011;47258;59.424;13.482;2023-01-10T12:49:43;1.67;;;0.52;;
46216;SDS011;47258;59.424;13.482;2023-01-10T12:52:16;0.93;;;0.60;;
46216;SDS011;47258;59.424;13.482;2023-01-10T12:54:49;4.78;;;0.98;;
46216;SDS011;47258;59.424;13.482;2023-01-10T12:57:20;3.92;;;0.70;;
46216;SDS011;47258;59.424;13.482;2023-01-10T12:59:51;2.22;;;1.00;;
46216;SDS011;47258;59.424;13.482;2023-01-10T13:02:21;2.08;;;0.47;;
46216;SDS011;47258;59.424;13.482;2023-01-10T13:04:52;0.85;;;0.68;;
46216;SDS011;47258;59.424;13.482;2023-01-10T13:07:24;2.80;;;0.70;;
46216;SDS011;47258;59.424;13.482;2023-01-10T13:09:58;1.48;;;0.50;;
46216;SDS011;47258;59.424;13.482;2023-01-10T13:12:28;0.88;;;0.45;;
46216;SDS011;47258;59.424;13.482;2023-01-10T13:15:01;1.33;;;0.82;;
46216;SDS011;47258;59.424;13.482;2023-01-10T13:17:33;3.08;;;0.80;;
46216;SDS011;47258;59.424;13.482;2023-01-10T13:23:11;3.45;;;0.90;;
46216;SDS011;47258;59.424;13.482;2023-01-10T13:25:55;1.98;;;0.77;;
46216;SDS011;47258;59.424;13.482;2023-01-10T13:28:25;2.03;;;0.70;;
46216;SDS011;47258;59.424;13.482;2023-01-10T13:30:54;0.88;;;0.80;;
46216;SDS011;47258;59.424;13.482;2023-01-10T13:33:23;2.92;;;0.90;;
46216;SDS011;47258;59.424;13.482;2023-01-10T13:35:52;0.98;;;0.70;;
46216;SDS011;47258;59.424;13.482;2023-01-10T13:38:24;0.50;;;0.50;;
46216;SDS011;47258;59.424;13.482;2023-01-10T13:40:59;1.17;;;0.90;;
46216;SDS011;47258;59.424;13.482;2023-01-10T13:43:36;3.08;;;0.80;;
46216;SDS011;47258;59.424;13.482;2023-01-10T13:55:19;3.70;;;1.00;;
46216;SDS011;47258;59.424;13.482;2023-01-10T13:57:53;2.05;;;1.25;;
46216;SDS011;47258;59.424;13.482;2023-01-10T14:00:24;3.38;;;0.90;;
46216;SDS011;47258;59.424;13.482;2023-01-10T14:03:35;3.25;;;1.00;;
46216;SDS011;47258;59.424;13.482;2023-01-10T14:06:18;2.92;;;0.90;;
46216;SDS011;47258;59.424;13.482;2023-01-10T14:09:03;1.65;;;1.00;;
46216;SDS011;47258;59.424;13.482;2023-01-10T14:11:44;5.95;;;2.08;;
46216;SDS011;47258;59.424;13.482;2023-01-10T14:14:17;3.25;;;1.00;;
46216;SDS011;47258;59.424;13.482;2023-01-10T14:16:47;2.08;;;1.17;;
46216;SDS011;47258;59.424;13.482;2023-01-10T14:19:21;1.33;;;1.10;;
46216;SDS011;47258;59.424;13.482;2023-01-10T14:21:52;6.20;;;1.45;;
46216;SDS011;47258;59.424;13.482;2023-01-10T14:24:24;3.80;;;1.20;;
46216;SDS011;47258;59.424;13.482;2023-01-10T14:26:55;5.35;;;1.67;;
46216;SDS011;47258;59.424;13.482;2023-01-10T14:29:26;4.07;;;1.60;;
46216;SDS011;47258;59.424;13.482;2023-01-10T14:31:57;5.15;;;1.33;;
46216;SDS011;47258;59.424;13.482;2023-01-10T14:34:26;4.55;;;2.17;;
46216;SDS011;47258;59.424;13.482;2023-01-10T14:36:56;8.07;;;1.98;;
46216;SDS011;47258;59.424;13.482;2023-01-10T14:39:25;4.03;;;2.55;;
46216;SDS011;47258;59.424;13.482;2023-01-10T14:41:57;11.20;;;2.53;;
46216;SDS011;47258;59.424;13.482;2023-01-10T14:44:28;6.78;;;2.42;;
46216;SDS011;47258;59.424;13.482;2023-01-10T14:46:58;3.97;;;2.05;;
46216;SDS011;47258;59.424;13.482;2023-01-10T14:49:28;1.98;;;1.70;;
46216;SDS011;47258;59.424;13.482;2023-01-10T14:52:10;7.18;;;2.50;;
46216;SDS011;47258;59.424;13.482;2023-01-10T14:54:38;4.88;;;2.78;;
46216;SDS011;47258;59.424;13.482;2023-01-10T14:57:15;4.85;;;1.85;;
46216;SDS011;47258;59.424;13.482;2023-01-10T14:59:44;11.63;;;3.15;;
46216;SDS011;47258;59.424;13.482;2023-01-10T15:02:13;6.95;;;2.67;;
46216;SDS011;47258;59.424;13.482;2023-01-10T15:04:50;13.07;;;4.05;;
46216;SDS011;47258;59.424;13.482;2023-01-10T15:07:20;10.05;;;3.42;;
46216;SDS011;47258;59.424;13.482;2023-01-10T15:09:48;13.63;;;3.55;;
46216;SDS011;47258;59.424;13.482;2023-01-10T15:12:18;8.80;;;3.40;;
46216;SDS011;47258;59.424;13.482;2023-01-10T15:14:47;7.47;;;3.58;;
46216;SDS011;47258;59.424;13.482;2023-01-10T15:17:18;9.35;;;3.70;;
46216;SDS011;47258;59.424;13.482;2023-01-10T15:19:48;8.57;;;3.38;;
46216;SDS011;47258;59.424;13.482;2023-01-10T15:22:21;16.70;;;4.43;;